Time,TemperatureF,DewpointF,PressureIn,WindDirection,WindDirectionDegrees,WindSpeedMPH,WindSpeedGustMPH,Humidity,HourlyPrecipIn,Conditions,Clouds,dailyrainin,SoftwareType,DateUTC
2013-12-10 00:53:00,31.0,31.0,-100.00,NW,316,1.0,4.0,97,0.00,,,0.64,,2013-12-10 05:53:00,
2013-12-10 01:12:00,31.0,31.0,-100.00,WNW,294,1.0,4.0,97,0.00,,,0.56,,2013-12-10 06:12:00,
2013-12-10 01:22:00,31.0,31.0,-100.00,NNW,344,1.0,4.0,97,0.00,,,0.45,,2013-12-10 06:22:00,
2013-12-10 01:32:00,31.0,31.0,-100.00,NNW,344,1.0,4.0,97,0.00,,,0.45,,2013-12-10 06:32:00,
2013-12-10 01:53:00,32.0,31.0,-100.00,NNW,328,2.0,6.0,97,0.00,,,0.44,,2013-12-10 06:53:00,
2013-12-10 02:11:00,31.0,31.0,-100.00,SW,226,2.0,4.0,97,0.00,,,0.44,,2013-12-10 07:11:00,
2013-12-10 02:22:00,32.0,31.0,-100.00,North,7,1.0,4.0,97,0.00,,,0.44,,2013-12-10 07:22:00,
2013-12-10 02:33:00,32.0,31.0,-100.00,North,7,1.0,4.0,97,0.00,,,0.44,,2013-12-10 07:33:00,
2013-12-10 02:52:00,32.0,32.0,-100.00,NW,318,1.0,2.0,97,0.00,,,0.44,,2013-12-10 07:52:00,
2013-12-10 03:12:00,33.0,32.0,-100.00,NNE,27,1.0,3.0,97,0.00,,,0.44,,2013-12-10 08:12:00,
2013-12-10 03:22:00,33.0,33.0,-100.00,ENE,59,1.0,4.0,97,0.00,,,0.41,,2013-12-10 08:22:00,
2013-12-10 03:42:00,33.0,33.0,-100.00,SSW,200,2.0,6.0,97,0.01,,,0.37,,2013-12-10 08:42:00,
2013-12-10 03:52:00,33.0,33.0,-100.00,SSW,200,2.0,6.0,97,0.01,,,0.37,,2013-12-10 08:52:00,
2013-12-10 04:11:00,34.0,33.0,-100.00,SSW,199,2.0,4.0,97,0.07,,,0.33,,2013-12-10 09:11:00,
2013-12-10 04:22:00,35.0,35.0,-100.00,North,10,3.0,4.0,97,0.11,,,0.26,,2013-12-10 09:22:00,
2013-12-10 04:33:00,35.0,35.0,-100.00,North,10,3.0,4.0,97,0.11,,,0.26,,2013-12-10 09:33:00,
2013-12-10 05:12:00,36.0,35.0,-100.00,NW,318,2.0,7.0,96,0.04,,,0.31,,2013-12-10 10:12:00,
2013-12-10 05:22:00,36.0,35.0,-100.00,NE,47,3.0,6.0,96,0.35,,,0.34,,2013-12-10 10:22:00,
2013-12-10 05:33:00,36.0,35.0,-100.00,NE,47,3.0,6.0,96,0.35,,,0.34,,2013-12-10 10:33:00,
2013-12-10 06:12:00,36.0,35.0,-100.00,SW,216,2.0,4.0,96,0.26,,,0.45,,2013-12-10 11:12:00,
2013-12-10 06:23:00,36.0,35.0,-100.00,North,1,1.0,4.0,96,0.23,,,0.49,,2013-12-10 11:23:00,
2013-12-10 06:33:00,36.0,35.0,-100.00,North,1,1.0,4.0,96,0.23,,,0.49,,2013-12-10 11:33:00,
2013-12-10 06:53:00,36.0,35.0,-100.00,NE,34,1.0,3.0,96,0.10,,,0.52,,2013-12-10 11:53:00,
2013-12-10 07:12:00,37.0,36.0,-100.00,NE,48,3.0,5.0,96,0.17,,,0.50,,2013-12-10 12:12:00,
2013-12-10 07:22:00,37.0,36.0,-100.00,NW,325,3.0,6.0,96,0.13,,,0.56,,2013-12-10 12:22:00,
2013-12-10 07:32:00,37.0,36.0,-100.00,NW,325,3.0,6.0,96,0.13,,,0.56,,2013-12-10 12:32:00,
2013-12-10 07:52:00,37.0,36.0,-100.00,North,356,1.0,4.0,96,0.10,,,0.63,,2013-12-10 12:52:00,
2013-12-10 08:12:00,37.0,36.0,-100.00,East,83,2.0,5.0,96,0.18,,,0.67,,2013-12-10 13:12:00,
2013-12-10 08:22:00,37.0,36.0,-100.00,SW,234,1.0,2.0,96,0.00,,,0.70,,2013-12-10 13:22:00,
2013-12-10 08:32:00,37.0,36.0,-100.00,SW,234,1.0,2.0,96,0.00,,,0.70,,2013-12-10 13:32:00,
2013-12-10 09:22:00,38.0,37.0,-100.00,ENE,64,1.0,3.0,96,0.04,,,0.70,,2013-12-10 14:22:00,
2013-12-10 09:32:00,38.0,37.0,-100.00,ENE,64,1.0,3.0,96,0.04,,,0.70,,2013-12-10 14:32:00,
2013-12-10 09:42:00,38.0,37.0,-100.00,ENE,64,1.0,3.0,96,0.04,,,0.70,,2013-12-10 14:42:00,
2013-12-10 11:13:00,39.0,38.0,-100.00,SSW,196,3.0,5.0,96,0.00,,,0.80,,2013-12-10 16:13:00,
2013-12-10 11:23:00,39.0,38.0,-100.00,SSW,196,3.0,5.0,96,0.00,,,0.80,,2013-12-10 16:23:00,
2013-12-10 11:53:00,39.0,38.0,-100.00,SSW,198,3.0,6.0,95,0.00,,,0.80,,2013-12-10 16:53:00,
2013-12-10 12:13:00,40.0,38.0,-100.00,South,186,4.0,6.0,93,0.00,,,0.80,,2013-12-10 17:13:00,
2013-12-10 12:22:00,41.0,37.0,-100.00,South,191,8.0,14.0,84,0.00,,,0.80,,2013-12-10 17:22:00,
2013-12-10 12:34:00,41.0,37.0,-100.00,South,191,8.0,14.0,84,0.00,,,0.80,,2013-12-10 17:34:00,
2013-12-10 12:42:00,41.0,37.0,-100.00,South,191,8.0,14.0,84,0.00,,,0.80,,2013-12-10 17:42:00,
2013-12-10 13:11:00,40.0,32.0,-100.00,SSW,193,9.0,17.0,73,0.00,,,0.80,,2013-12-10 18:11:00,
2013-12-10 13:22:00,40.0,32.0,-100.00,SSW,193,9.0,17.0,73,0.00,,,0.80,,2013-12-10 18:22:00,
2013-12-10 14:22:00,40.0,27.0,-100.00,South,191,9.0,18.0,60,0.00,,,0.80,,2013-12-10 19:22:00,
2013-12-10 14:32:00,40.0,27.0,-100.00,South,191,9.0,18.0,60,0.00,,,0.80,,2013-12-10 19:32:00,
2013-12-10 14:52:00,40.0,25.0,-100.00,SSW,200,13.0,23.0,56,0.00,,,0.80,,2013-12-10 19:52:00,
2013-12-10 15:02:00,40.0,25.0,-100.00,SSW,200,13.0,23.0,56,0.00,,,0.80,,2013-12-10 20:02:00,
2013-12-10 15:22:00,39.0,23.0,-100.00,SSW,198,15.0,28.0,52,0.00,,,0.80,,2013-12-10 20:22:00,
2013-12-10 15:32:00,39.0,23.0,-100.00,SSW,198,15.0,28.0,52,0.00,,,0.80,,2013-12-10 20:32:00,
2013-12-10 15:42:00,39.0,23.0,-100.00,SSW,198,15.0,28.0,52,0.00,,,0.80,,2013-12-10 20:42:00,
2013-12-10 16:12:00,38.0,23.0,-100.00,SSW,200,11.0,19.0,54,0.00,,,0.80,,2013-12-10 21:12:00,
2013-12-10 16:22:00,38.0,24.0,-100.00,SSW,192,8.0,15.0,58,0.00,,,0.80,,2013-12-10 21:22:00,
2013-12-10 16:33:00,38.0,24.0,-100.00,SSW,192,8.0,15.0,58,0.00,,,0.80,,2013-12-10 21:33:00,
2013-12-10 16:43:00,38.0,24.0,-100.00,SSW,192,8.0,15.0,58,0.00,,,0.80,,2013-12-10 21:43:00,
2013-12-10 17:23:00,36.0,23.0,-100.00,SSW,192,9.0,15.0,60,0.00,,,0.80,,2013-12-10 22:23:00,
2013-12-10 17:33:00,36.0,23.0,-100.00,SSW,192,9.0,15.0,60,0.00,,,0.80,,2013-12-10 22:33:00,
2013-12-10 17:43:00,36.0,23.0,-100.00,SSW,192,9.0,15.0,60,0.00,,,0.80,,2013-12-10 22:43:00,
2013-12-10 18:22:00,33.0,22.0,-100.00,South,186,7.0,11.0,64,0.00,,,0.80,,2013-12-10 23:22:00,
2013-12-10 18:33:00,33.0,22.0,-100.00,South,186,7.0,11.0,64,0.00,,,0.80,,2013-12-10 23:33:00,
2013-12-10 18:53:00,32.0,22.0,-100.00,South,186,6.0,11.0,66,0.00,,,0.80,,2013-12-10 23:53:00,
2013-12-10 19:02:00,32.0,22.0,-100.00,South,186,6.0,11.0,66,0.00,,,0.80,,2013-12-11 00:02:00,
2013-12-10 19:23:00,31.0,22.0,-100.00,South,186,6.0,8.0,68,0.00,,,0.80,,2013-12-11 00:23:00,
2013-12-10 19:32:00,31.0,22.0,-100.00,South,186,6.0,8.0,68,0.00,,,0.80,,2013-12-11 00:32:00,
2013-12-10 19:52:00,31.0,22.0,-100.00,South,185,6.0,13.0,68,0.00,,,0.80,,2013-12-11 00:52:00,
2013-12-10 20:11:00,30.0,22.0,-100.00,South,185,4.0,8.0,70,0.00,,,0.80,,2013-12-11 01:11:00,
2013-12-10 20:22:00,31.0,20.0,-100.00,South,184,6.0,8.0,64,0.00,,,0.80,,2013-12-11 01:22:00,
2013-12-10 20:32:00,31.0,20.0,-100.00,South,184,6.0,8.0,64,0.00,,,0.80,,2013-12-11 01:32:00,
2013-12-10 20:52:00,31.0,21.0,-100.00,South,185,6.0,10.0,65,0.00,,,0.80,,2013-12-11 01:52:00,
2013-12-10 21:12:00,31.0,20.0,-100.00,South,182,6.0,9.0,65,0.00,,,0.80,,2013-12-11 02:12:00,
2013-12-10 21:22:00,31.0,20.0,-100.00,South,182,6.0,8.0,64,0.00,,,0.80,,2013-12-11 02:22:00,
2013-12-10 21:32:00,31.0,20.0,-100.00,South,182,6.0,8.0,64,0.00,,,0.80,,2013-12-11 02:32:00,
2013-12-10 21:52:00,31.0,20.0,-100.00,SSW,192,5.0,8.0,66,0.00,,,0.80,,2013-12-11 02:52:00,
2013-12-10 22:11:00,29.0,21.0,-100.00,SSW,195,4.0,7.0,71,0.00,,,0.80,,2013-12-11 03:11:00,
2013-12-10 22:22:00,28.0,22.0,-100.00,SW,215,3.0,6.0,79,0.00,,,0.80,,2013-12-11 03:22:00,
2013-12-10 22:33:00,28.0,22.0,-100.00,SW,215,3.0,6.0,79,0.00,,,0.80,,2013-12-11 03:33:00,
2013-12-10 22:54:00,28.0,21.0,-100.00,SSW,205,4.0,8.0,74,0.00,,,0.80,,2013-12-11 03:54:00,
2013-12-10 23:13:00,29.0,21.0,-100.00,SSW,210,4.0,7.0,72,0.00,,,0.80,,2013-12-11 04:13:00,
2013-12-10 23:23:00,30.0,20.0,-100.00,SSW,213,3.0,10.0,67,0.00,,,0.80,,2013-12-11 04:23:00,
2013-12-10 23:43:00,30.0,22.0,-100.00,SSW,198,4.0,10.0,70,0.00,,,0.80,,2013-12-11 04:43:00,
2013-12-10 23:53:00,30.0,22.0,-100.00,SSW,198,4.0,10.0,70,0.00,,,0.80,,2013-12-11 04:53:00,